sensor_id;sensor_type;location;lat;lon;timestamp;temperature;humidity
10431;DHT22;5262;59.958;17.726;2023-03-24T00:00:39;6.00;99.90
10431;DHT22;5262;59.958;17.726;2023-03-24T00:03:04;5.90;99.90
10431;DHT22;5262;59.958;17.726;2023-03-24T00:05:30;6.00;99.90
10431;DHT22;5262;59.958;17.726;2023-03-24T00:07:56;5.90;99.90
10431;DHT22;5262;59.958;17.726;2023-03-24T00:10:25;5.90;99.90
10431;DHT22;5262;59.958;17.726;2023-03-24T00:12:55;5.90;99.90
10431;DHT22;5262;59.958;17.726;2023-03-24T00:15:23;5.90;99.90
10431;DHT22;5262;59.958;17.726;2023-03-24T00:17:49;5.90;99.90
10431;DHT22;5262;59.958;17.726;2023-03-24T00:20:17;5.90;99.90
10431;DHT22;5262;59.958;17.726;2023-03-24T00:22:47;5.80;99.90
10431;DHT22;5262;59.958;17.726;2023-03-24T00:25:13;5.80;99.90
10431;DHT22;5262;59.958;17.726;2023-03-24T00:27:39;5.70;99.90
10431;DHT22;5262;59.958;17.726;2023-03-24T00:30:07;5.70;99.90
10431;DHT22;5262;59.958;17.726;2023-03-24T00:32:34;5.70;99.90
10431;DHT22;5262;59.958;17.726;2023-03-24T00:35:04;5.70;99.90
10431;DHT22;5262;59.958;17.726;2023-03-24T00:37:30;5.70;99.90
10431;DHT22;5262;59.958;17.726;2023-03-24T00:39:56;5.70;99.90
10431;DHT22;5262;59.958;17.726;2023-03-24T00:42:22;5.70;99.90
10431;DHT22;5262;59.958;17.726;2023-03-24T00:44:49;5.70;99.90
10431;DHT22;5262;59.958;17.726;2023-03-24T00:47:15;5.60;99.90
10431;DHT22;5262;59.958;17.726;2023-03-24T00:49:42;5.60;99.90
10431;DHT22;5262;59.958;17.726;2023-03-24T00:52:21;5.60;99.90
10431;DHT22;5262;59.958;17.726;2023-03-24T00:54:49;5.60;99.90
10431;DHT22;5262;59.958;17.726;2023-03-24T00:57:16;5.70;99.90
10431;DHT22;5262;59.958;17.726;2023-03-24T00:59:52;5.70;99.90
10431;DHT22;5262;59.958;17.726;2023-03-24T01:02:21;5.70;99.90
10431;DHT22;5262;59.958;17.726;2023-03-24T01:04:56;5.70;99.90
10431;DHT22;5262;59.958;17.726;2023-03-24T01:07:24;5.70;99.90
10431;DHT22;5262;59.958;17.726;2023-03-24T01:09:49;5.70;99.90
10431;DHT22;5262;59.958;17.726;2023-03-24T01:12:32;5.70;99.90
10431;DHT22;5262;59.958;17.726;2023-03-24T01:15:00;5.70;99.90
10431;DHT22;5262;59.958;17.726;2023-03-24T01:17:30;5.70;99.90
10431;DHT22;5262;59.958;17.726;2023-03-24T01:19:56;5.70;99.90
10431;DHT22;5262;59.958;17.726;2023-03-24T01:22:26;5.70;99.90
10431;DHT22;5262;59.958;17.726;2023-03-24T01:24:52;5.70;99.90
10431;DHT22;5262;59.958;17.726;2023-03-24T01:27:18;5.60;99.90
10431;DHT22;5262;59.958;17.726;2023-03-24T01:29:44;5.60;99.90
10431;DHT22;5262;59.958;17.726;2023-03-24T01:32:11;5.60;99.90
10431;DHT22;5262;59.958;17.726;2023-03-24T01:34:37;5.60;99.90
10431;DHT22;5262;59.958;17.726;2023-03-24T01:37:03;5.60;99.90
10431;DHT22;5262;59.958;17.726;2023-03-24T01:39:28;5.60;99.90
10431;DHT22;5262;59.958;17.726;2023-03-24T01:41:54;5.60;99.90
10431;DHT22;5262;59.958;17.726;2023-03-24T01:44:35;5.60;99.90
10431;DHT22;5262;59.958;17.726;2023-03-24T01:47:02;5.60;99.90
10431;DHT22;5262;59.958;17.726;2023-03-24T01:49:47;5.60;99.90
10431;DHT22;5262;59.958;17.726;2023-03-24T01:52:21;5.60;99.90
10431;DHT22;5262;59.958;17.726;2023-03-24T01:54:55;5.60;99.90
10431;DHT22;5262;59.958;17.726;2023-03-24T01:57:40;5.60;99.90
10431;DHT22;5262;59.958;17.726;2023-03-24T02:00:10;5.60;99.90
10431;DHT22;5262;59.958;17.726;2023-03-24T02:02:39;5.60;99.90
10431;DHT22;5262;59.958;17.726;2023-03-24T02:05:08;5.70;99.90
10431;DHT22;5262;59.958;17.726;2023-03-24T02:08:35;5.70;99.90
10431;DHT22;5262;59.958;17.726;2023-03-24T02:10:42;5.60;99.90
10431;DHT22;5262;59.958;17.726;2023-03-24T02:13:08;5.70;99.90
10431;DHT22;5262;59.958;17.726;2023-03-24T02:15:40;5.60;99.90
10431;DHT22;5262;59.958;17.726;2023-03-24T02:48:37;5.50;99.90
10431;DHT22;5262;59.958;17.726;2023-03-24T02:51:19;5.50;99.90
10431;DHT22;5262;59.958;17.726;2023-03-24T02:54:15;5.50;99.90
10431;DHT22;5262;59.958;17.726;2023-03-24T02:56:46;5.50;99.90
10431;DHT22;5262;59.958;17.726;2023-03-24T02:59:33;5.50;99.90
10431;DHT22;5262;59.958;17.726;2023-03-24T03:02:08;5.50;99.90
10431;DHT22;5262;59.958;17.726;2023-03-24T03:04:47;5.60;99.90
10431;DHT22;5262;59.958;17.726;2023-03-24T03:07:16;5.60;99.90
10431;DHT22;5262;59.958;17.726;2023-03-24T03:10:02;5.60;99.90
10431;DHT22;5262;59.958;17.726;2023-03-24T03:12:32;5.50;99.90
10431;DHT22;5262;59.958;17.726;2023-03-24T03:15:08;5.50;99.90
10431;DHT22;5262;59.958;17.726;2023-03-24T03:17:41;5.50;99.90
10431;DHT22;5262;59.958;17.726;2023-03-24T03:20:16;5.50;99.90
10431;DHT22;5262;59.958;17.726;2023-03-24T03:22:56;5.50;99.90
10431;DHT22;5262;59.958;17.726;2023-03-24T03:25:27;5.50;99.90
10431;DHT22;5262;59.958;17.726;2023-03-24T03:27:57;5.50;99.90
10431;DHT22;5262;59.958;17.726;2023-03-24T03:30:34;5.50;99.90
10431;DHT22;5262;59.958;17.726;2023-03-24T03:33:14;5.50;99.90
10431;DHT22;5262;59.958;17.726;2023-03-24T03:35:48;5.50;99.90
10431;DHT22;5262;59.958;17.726;2023-03-24T03:38:46;5.50;99.90
10431;DHT22;5262;59.958;17.726;2023-03-24T03:41:15;5.40;99.90
10431;DHT22;5262;59.958;17.726;2023-03-24T03:43:43;5.50;99.90
10431;DHT22;5262;59.958;17.726;2023-03-24T03:46:10;5.40;99.90
10431;DHT22;5262;59.958;17.726;2023-03-24T03:48:37;5.40;99.90
10431;DHT22;5262;59.958;17.726;2023-03-24T03:51:03;5.40;99.90
10431;DHT22;5262;59.958;17.726;2023-03-24T03:56:03;5.40;99.90
10431;DHT22;5262;59.958;17.726;2023-03-24T03:58:29;5.40;99.90
10431;DHT22;5262;59.958;17.726;2023-03-24T04:00:55;5.40;99.90
10431;DHT22;5262;59.958;17.726;2023-03-24T04:09:58;5.40;99.90
10431;DHT22;5262;59.958;17.726;2023-03-24T04:15:54;5.40;99.90
10431;DHT22;5262;59.958;17.726;2023-03-24T04:18:52;5.40;99.90
10431;DHT22;5262;59.958;17.726;2023-03-24T04:22:16;5.40;99.90
10431;DHT22;5262;59.958;17.726;2023-03-24T04:28:22;5.40;99.90
10431;DHT22;5262;59.958;17.726;2023-03-24T04:31:15;5.40;99.90
10431;DHT22;5262;59.958;17.726;2023-03-24T04:34:10;5.40;99.90
10431;DHT22;5262;59.958;17.726;2023-03-24T04:37:10;5.40;99.90
10431;DHT22;5262;59.958;17.726;2023-03-24T04:39:59;5.40;99.90
10431;DHT22;5262;59.958;17.726;2023-03-24T04:42:50;5.50;99.90
10431;DHT22;5262;59.958;17.726;2023-03-24T04:45:17;5.50;99.90
10431;DHT22;5262;59.958;17.726;2023-03-24T04:47:49;5.50;99.90
10431;DHT22;5262;59.958;17.726;2023-03-24T04:50:43;5.50;99.90
10431;DHT22;5262;59.958;17.726;2023-03-24T04:53:29;5.50;99.90
10431;DHT22;5262;59.958;17.726;2023-03-24T04:59:30;5.50;99.90
10431;DHT22;5262;59.958;17.726;2023-03-24T05:02:18;5.50;99.90
10431;DHT22;5262;59.958;17.726;2023-03-24T05:05:04;5.50;99.90
10431;DHT22;5262;59.958;17.726;2023-03-24T05:07:49;5.50;99.90
10431;DHT22;5262;59.958;17.726;2023-03-24T05:10:15;5.50;99.90
10431;DHT22;5262;59.958;17.726;2023-03-24T05:12:41;5.50;99.90
10431;DHT22;5262;59.958;17.726;2023-03-24T05:15:27;5.50;99.90
10431;DHT22;5262;59.958;17.726;2023-03-24T05:18:13;5.50;99.90
10431;DHT22;5262;59.958;17.726;2023-03-24T05:20:40;5.50;99.90
10431;DHT22;5262;59.958;17.726;2023-03-24T05:23:26;5.50;99.90
10431;DHT22;5262;59.958;17.726;2023-03-24T05:26:12;5.50;99.90
10431;DHT22;5262;59.958;17.726;2023-03-24T05:28:57;5.50;99.90
10431;DHT22;5262;59.958;17.726;2023-03-24T05:31:43;5.50;99.90
10431;DHT22;5262;59.958;17.726;2023-03-24T05:34:29;5.50;99.90
10431;DHT22;5262;59.958;17.726;2023-03-24T05:37:15;5.50;99.90
10431;DHT22;5262;59.958;17.726;2023-03-24T05:40:02;5.50;99.90
10431;DHT22;5262;59.958;17.726;2023-03-24T05:42:50;5.50;99.90
10431;DHT22;5262;59.958;17.726;2023-03-24T05:45:36;5.40;99.90
10431;DHT22;5262;59.958;17.726;2023-03-24T05:48:01;5.40;99.90
10431;DHT22;5262;59.958;17.726;2023-03-24T05:50:27;5.50;99.90
10431;DHT22;5262;59.958;17.726;2023-03-24T05:53:13;5.50;99.90
10431;DHT22;5262;59.958;17.726;2023-03-24T05:55:58;5.50;99.90
10431;DHT22;5262;59.958;17.726;2023-03-24T05:58:44;5.50;99.90
10431;DHT22;5262;59.958;17.726;2023-03-24T06:01:30;5.50;99.90
10431;DHT22;5262;59.958;17.726;2023-03-24T06:04:15;5.50;99.90
10431;DHT22;5262;59.958;17.726;2023-03-24T06:07:01;5.50;99.90
10431;DHT22;5262;59.958;17.726;2023-03-24T06:09:48;5.50;99.90
10431;DHT22;5262;59.958;17.726;2023-03-24T06:12:35;5.50;99.90
10431;DHT22;5262;59.958;17.726;2023-03-24T06:15:00;5.60;99.90
10431;DHT22;5262;59.958;17.726;2023-03-24T06:17:28;5.60;99.90
10431;DHT22;5262;59.958;17.726;2023-03-24T06:20:15;5.60;99.90
10431;DHT22;5262;59.958;17.726;2023-03-24T06:23:02;5.70;99.90
10431;DHT22;5262;59.958;17.726;2023-03-24T06:25:48;5.70;99.90
10431;DHT22;5262;59.958;17.726;2023-03-24T06:28:35;5.80;99.90
10431;DHT22;5262;59.958;17.726;2023-03-24T06:31:20;5.80;99.90
10431;DHT22;5262;59.958;17.726;2023-03-24T06:34:06;5.90;99.90
10431;DHT22;5262;59.958;17.726;2023-03-24T06:36:52;5.90;99.90
10431;DHT22;5262;59.958;17.726;2023-03-24T06:39:37;5.90;99.90
10431;DHT22;5262;59.958;17.726;2023-03-24T06:42:23;6.00;99.90
10431;DHT22;5262;59.958;17.726;2023-03-24T06:45:09;6.10;99.90
10431;DHT22;5262;59.958;17.726;2023-03-24T06:47:35;6.10;99.90
10431;DHT22;5262;59.958;17.726;2023-03-24T06:50:22;6.10;99.90
10431;DHT22;5262;59.958;17.726;2023-03-24T06:53:11;6.20;99.90
10431;DHT22;5262;59.958;17.726;2023-03-24T06:55:56;6.20;99.90
10431;DHT22;5262;59.958;17.726;2023-03-24T06:58:43;6.20;99.90
10431;DHT22;5262;59.958;17.726;2023-03-24T07:01:29;6.30;99.90
10431;DHT22;5262;59.958;17.726;2023-03-24T07:04:15;6.40;99.90
10431;DHT22;5262;59.958;17.726;2023-03-24T07:07:01;6.60;99.90
10431;DHT22;5262;59.958;17.726;2023-03-24T07:09:47;7.00;99.90
10431;DHT22;5262;59.958;17.726;2023-03-24T07:12:34;7.10;99.90
10431;DHT22;5262;59.958;17.726;2023-03-24T07:15:19;7.10;99.90
10431;DHT22;5262;59.958;17.726;2023-03-24T07:17:45;7.00;99.90
10431;DHT22;5262;59.958;17.726;2023-03-24T07:20:11;6.80;99.90
10431;DHT22;5262;59.958;17.726;2023-03-24T07:22:44;6.80;99.90
10431;DHT22;5262;59.958;17.726;2023-03-24T07:25:10;6.90;99.90
10431;DHT22;5262;59.958;17.726;2023-03-24T07:27:39;7.00;99.90
10431;DHT22;5262;59.958;17.726;2023-03-24T07:30:06;7.00;99.90
10431;DHT22;5262;59.958;17.726;2023-03-24T07:32:33;7.10;99.90
10431;DHT22;5262;59.958;17.726;2023-03-24T07:35:04;7.20;99.90
10431;DHT22;5262;59.958;17.726;2023-03-24T07:37:30;7.20;99.90
10431;DHT22;5262;59.958;17.726;2023-03-24T07:39:56;7.40;99.90
10431;DHT22;5262;59.958;17.726;2023-03-24T07:42:23;7.50;99.90
10431;DHT22;5262;59.958;17.726;2023-03-24T07:44:49;7.40;99.90
10431;DHT22;5262;59.958;17.726;2023-03-24T07:47:14;7.50;99.90
10431;DHT22;5262;59.958;17.726;2023-03-24T07:49:40;7.60;99.90
10431;DHT22;5262;59.958;17.726;2023-03-24T07:52:06;7.60;99.90
10431;DHT22;5262;59.958;17.726;2023-03-24T07:54:32;7.50;99.90
10431;DHT22;5262;59.958;17.726;2023-03-24T07:56:59;7.50;99.90
10431;DHT22;5262;59.958;17.726;2023-03-24T07:59:25;7.40;99.90
10431;DHT22;5262;59.958;17.726;2023-03-24T08:01:52;7.40;99.90
10431;DHT22;5262;59.958;17.726;2023-03-24T08:04:18;7.30;99.90
10431;DHT22;5262;59.958;17.726;2023-03-24T08:06:44;7.30;99.90
10431;DHT22;5262;59.958;17.726;2023-03-24T08:09:10;7.20;99.90
10431;DHT22;5262;59.958;17.726;2023-03-24T08:11:37;7.20;99.90
10431;DHT22;5262;59.958;17.726;2023-03-24T08:14:03;7.10;99.90
10431;DHT22;5262;59.958;17.726;2023-03-24T08:16:28;7.20;99.90
10431;DHT22;5262;59.958;17.726;2023-03-24T08:18:54;7.40;99.90
10431;DHT22;5262;59.958;17.726;2023-03-24T08:21:23;7.40;99.90
10431;DHT22;5262;59.958;17.726;2023-03-24T08:23:49;7.50;99.90
10431;DHT22;5262;59.958;17.726;2023-03-24T08:26:15;7.60;99.90
10431;DHT22;5262;59.958;17.726;2023-03-24T08:28:41;7.50;99.90
10431;DHT22;5262;59.958;17.726;2023-03-24T08:31:07;7.40;99.90
10431;DHT22;5262;59.958;17.726;2023-03-24T08:33:33;7.30;99.90
10431;DHT22;5262;59.958;17.726;2023-03-24T08:35:59;7.30;99.90
10431;DHT22;5262;59.958;17.726;2023-03-24T08:38:26;7.20;99.90
10431;DHT22;5262;59.958;17.726;2023-03-24T08:41:05;7.30;99.90
10431;DHT22;5262;59.958;17.726;2023-03-24T08:43:34;7.40;99.90
10431;DHT22;5262;59.958;17.726;2023-03-24T08:46:01;7.60;99.90
10431;DHT22;5262;59.958;17.726;2023-03-24T08:48:28;7.70;99.90
10431;DHT22;5262;59.958;17.726;2023-03-24T08:50:54;7.80;99.90
10431;DHT22;5262;59.958;17.726;2023-03-24T08:53:20;7.80;99.90
10431;DHT22;5262;59.958;17.726;2023-03-24T08:55:46;8.00;99.90
10431;DHT22;5262;59.958;17.726;2023-03-24T08:58:17;8.40;99.90
10431;DHT22;5262;59.958;17.726;2023-03-24T09:00:44;8.60;99.90
10431;DHT22;5262;59.958;17.726;2023-03-24T09:03:16;8.80;99.90
10431;DHT22;5262;59.958;17.726;2023-03-24T09:05:43;8.80;99.90
10431;DHT22;5262;59.958;17.726;2023-03-24T09:08:10;8.80;99.90
10431;DHT22;5262;59.958;17.726;2023-03-24T09:10:38;9.10;99.90
10431;DHT22;5262;59.958;17.726;2023-03-24T09:13:03;9.30;99.90
10431;DHT22;5262;59.958;17.726;2023-03-24T09:15:30;9.20;99.90
10431;DHT22;5262;59.958;17.726;2023-03-24T09:17:55;9.00;99.90
10431;DHT22;5262;59.958;17.726;2023-03-24T09:20:21;8.80;99.90
10431;DHT22;5262;59.958;17.726;2023-03-24T09:22:47;8.60;99.90
10431;DHT22;5262;59.958;17.726;2023-03-24T09:25:16;8.70;99.90
10431;DHT22;5262;59.958;17.726;2023-03-24T09:27:42;8.60;99.90
10431;DHT22;5262;59.958;17.726;2023-03-24T09:30:10;8.40;99.90
10431;DHT22;5262;59.958;17.726;2023-03-24T09:32:36;8.20;99.90
10431;DHT22;5262;59.958;17.726;2023-03-24T09:35:02;8.20;99.90
10431;DHT22;5262;59.958;17.726;2023-03-24T09:37:31;8.20;99.90
10431;DHT22;5262;59.958;17.726;2023-03-24T09:39:58;8.20;99.90
10431;DHT22;5262;59.958;17.726;2023-03-24T09:42:28;8.40;99.90
10431;DHT22;5262;59.958;17.726;2023-03-24T09:44:58;8.40;99.90
10431;DHT22;5262;59.958;17.726;2023-03-24T09:47:46;8.40;99.90
10431;DHT22;5262;59.958;17.726;2023-03-24T09:50:52;8.50;99.90
10431;DHT22;5262;59.958;17.726;2023-03-24T09:53:31;8.50;99.90
10431;DHT22;5262;59.958;17.726;2023-03-24T09:56:09;8.40;99.90
10431;DHT22;5262;59.958;17.726;2023-03-24T09:58:35;8.50;99.90
10431;DHT22;5262;59.958;17.726;2023-03-24T10:01:09;8.60;99.90
10431;DHT22;5262;59.958;17.726;2023-03-24T10:03:35;8.80;99.90
10431;DHT22;5262;59.958;17.726;2023-03-24T10:06:09;9.10;99.90
10431;DHT22;5262;59.958;17.726;2023-03-24T10:08:38;9.20;99.90
10431;DHT22;5262;59.958;17.726;2023-03-24T10:11:29;9.20;99.90
10431;DHT22;5262;59.958;17.726;2023-03-24T10:14:12;9.10;99.90
10431;DHT22;5262;59.958;17.726;2023-03-24T10:19:35;9.00;99.90
10431;DHT22;5262;59.958;17.726;2023-03-24T10:25:17;9.00;99.90
10431;DHT22;5262;59.958;17.726;2023-03-24T10:27:53;9.10;99.90
10431;DHT22;5262;59.958;17.726;2023-03-24T10:30:25;9.00;99.90
10431;DHT22;5262;59.958;17.726;2023-03-24T10:32:52;9.10;99.90
10431;DHT22;5262;59.958;17.726;2023-03-24T10:35:29;8.90;99.90
10431;DHT22;5262;59.958;17.726;2023-03-24T10:37:58;8.90;99.90
10431;DHT22;5262;59.958;17.726;2023-03-24T10:40:30;9.10;99.90
10431;DHT22;5262;59.958;17.726;2023-03-24T10:42:57;9.10;99.90
10431;DHT22;5262;59.958;17.726;2023-03-24T10:45:29;9.10;99.90
10431;DHT22;5262;59.958;17.726;2023-03-24T10:47:59;9.20;99.90
10431;DHT22;5262;59.958;17.726;2023-03-24T10:50:31;9.00;99.90
10431;DHT22;5262;59.958;17.726;2023-03-24T10:52:58;8.90;99.90
10431;DHT22;5262;59.958;17.726;2023-03-24T10:55:29;8.90;99.90
10431;DHT22;5262;59.958;17.726;2023-03-24T10:57:59;8.90;99.90
10431;DHT22;5262;59.958;17.726;2023-03-24T11:00:28;9.00;99.90
10431;DHT22;5262;59.958;17.726;2023-03-24T11:03:10;9.00;99.90
10431;DHT22;5262;59.958;17.726;2023-03-24T11:05:38;9.00;99.90
10431;DHT22;5262;59.958;17.726;2023-03-24T11:10:58;8.90;99.90
10431;DHT22;5262;59.958;17.726;2023-03-24T11:13:32;8.90;99.90
10431;DHT22;5262;59.958;17.726;2023-03-24T11:16:11;8.90;99.90
10431;DHT22;5262;59.958;17.726;2023-03-24T11:19:00;8.90;99.90
10431;DHT22;5262;59.958;17.726;2023-03-24T11:21:28;9.00;99.90
10431;DHT22;5262;59.958;17.726;2023-03-24T11:24:00;9.00;99.90
10431;DHT22;5262;59.958;17.726;2023-03-24T11:26:31;8.90;99.90
10431;DHT22;5262;59.958;17.726;2023-03-24T11:29:33;8.70;99.90
10431;DHT22;5262;59.958;17.726;2023-03-24T11:32:00;8.60;99.90
10431;DHT22;5262;59.958;17.726;2023-03-24T11:34:31;8.60;99.90
10431;DHT22;5262;59.958;17.726;2023-03-24T11:39:25;8.60;99.90
10431;DHT22;5262;59.958;17.726;2023-03-24T11:42:04;8.60;99.90
10431;DHT22;5262;59.958;17.726;2023-03-24T11:53:15;8.20;99.90
10431;DHT22;5262;59.958;17.726;2023-03-24T11:56:06;8.10;99.90
10431;DHT22;5262;59.958;17.726;2023-03-24T11:58:49;8.00;99.90
10431;DHT22;5262;59.958;17.726;2023-03-24T12:04:14;7.80;99.90
10431;DHT22;5262;59.958;17.726;2023-03-24T12:10:12;7.90;99.90
10431;DHT22;5262;59.958;17.726;2023-03-24T12:15:25;8.00;99.90
10431;DHT22;5262;59.958;17.726;2023-03-24T12:20:57;7.90;99.90
10431;DHT22;5262;59.958;17.726;2023-03-24T12:26:28;7.80;99.90
10431;DHT22;5262;59.958;17.726;2023-03-24T12:35:26;7.60;99.90
10431;DHT22;5262;59.958;17.726;2023-03-24T12:41:12;7.40;99.90
10431;DHT22;5262;59.958;17.726;2023-03-24T12:55:20;7.00;99.90
10431;DHT22;5262;59.958;17.726;2023-03-24T12:57:58;7.00;99.90
10431;DHT22;5262;59.958;17.726;2023-03-24T13:00:30;6.90;99.90
10431;DHT22;5262;59.958;17.726;2023-03-24T13:03:15;6.90;99.90
10431;DHT22;5262;59.958;17.726;2023-03-24T13:05:54;6.80;99.90
10431;DHT22;5262;59.958;17.726;2023-03-24T13:08:24;6.70;99.90
10431;DHT22;5262;59.958;17.726;2023-03-24T13:10:56;6.70;99.90
10431;DHT22;5262;59.958;17.726;2023-03-24T13:13:30;6.60;99.90
10431;DHT22;5262;59.958;17.726;2023-03-24T13:16:04;6.60;99.90
10431;DHT22;5262;59.958;17.726;2023-03-24T13:18:49;6.70;99.90
10431;DHT22;5262;59.958;17.726;2023-03-24T13:21:18;6.60;99.90
10431;DHT22;5262;59.958;17.726;2023-03-24T13:24:02;6.50;99.90
10431;DHT22;5262;59.958;17.726;2023-03-24T13:31:55;6.60;99.90
10431;DHT22;5262;59.958;17.726;2023-03-24T13:34:29;6.50;99.90
10431;DHT22;5262;59.958;17.726;2023-03-24T13:37:00;6.60;99.90
10431;DHT22;5262;59.958;17.726;2023-03-24T13:39:27;6.60;99.90
10431;DHT22;5262;59.958;17.726;2023-03-24T13:41:56;6.60;99.90
10431;DHT22;5262;59.958;17.726;2023-03-24T13:44:40;6.60;99.90
10431;DHT22;5262;59.958;17.726;2023-03-24T13:47:12;6.50;99.90
10431;DHT22;5262;59.958;17.726;2023-03-24T13:49:40;6.50;99.90
10431;DHT22;5262;59.958;17.726;2023-03-24T13:52:43;6.40;99.90
10431;DHT22;5262;59.958;17.726;2023-03-24T13:55:19;6.40;99.90
10431;DHT22;5262;59.958;17.726;2023-03-24T13:57:58;6.40;99.90
10431;DHT22;5262;59.958;17.726;2023-03-24T14:00:26;6.50;99.90
10431;DHT22;5262;59.958;17.726;2023-03-24T14:02:54;6.40;99.90
10431;DHT22;5262;59.958;17.726;2023-03-24T14:15:34;6.40;99.90
10431;DHT22;5262;59.958;17.726;2023-03-24T14:23:43;6.50;99.90
10431;DHT22;5262;59.958;17.726;2023-03-24T14:28:49;6.50;99.90
10431;DHT22;5262;59.958;17.726;2023-03-24T14:36:31;6.60;99.90
10431;DHT22;5262;59.958;17.726;2023-03-24T14:41:49;6.60;99.90
10431;DHT22;5262;59.958;17.726;2023-03-24T14:47:20;6.70;99.90
10431;DHT22;5262;59.958;17.726;2023-03-24T14:49:47;6.60;99.90
10431;DHT22;5262;59.958;17.726;2023-03-24T14:54:52;6.50;99.90
10431;DHT22;5262;59.958;17.726;2023-03-24T14:57:30;6.50;99.90
10431;DHT22;5262;59.958;17.726;2023-03-24T15:07:43;6.40;99.90
10431;DHT22;5262;59.958;17.726;2023-03-24T15:10:17;6.30;99.90
10431;DHT22;5262;59.958;17.726;2023-03-24T15:12:47;6.30;99.90
10431;DHT22;5262;59.958;17.726;2023-03-24T15:15:23;6.40;99.90
10431;DHT22;5262;59.958;17.726;2023-03-24T15:17:50;6.30;99.90
10431;DHT22;5262;59.958;17.726;2023-03-24T15:20:24;6.30;99.90
10431;DHT22;5262;59.958;17.726;2023-03-24T15:22:51;6.30;99.90
10431;DHT22;5262;59.958;17.726;2023-03-24T15:25:27;6.30;99.90
10431;DHT22;5262;59.958;17.726;2023-03-24T15:27:54;6.30;99.90
10431;DHT22;5262;59.958;17.726;2023-03-24T15:30:20;6.30;99.90
10431;DHT22;5262;59.958;17.726;2023-03-24T15:32:46;6.20;99.90
10431;DHT22;5262;59.958;17.726;2023-03-24T15:35:15;6.20;99.90
10431;DHT22;5262;59.958;17.726;2023-03-24T15:37:42;6.10;99.90
10431;DHT22;5262;59.958;17.726;2023-03-24T15:42:51;6.10;99.90
10431;DHT22;5262;59.958;17.726;2023-03-24T15:45:29;6.10;99.90
10431;DHT22;5262;59.958;17.726;2023-03-24T15:47:57;6.00;99.90
10431;DHT22;5262;59.958;17.726;2023-03-24T15:50:29;6.00;99.90
10431;DHT22;5262;59.958;17.726;2023-03-24T15:55:43;6.00;99.90
10431;DHT22;5262;59.958;17.726;2023-03-24T15:58:24;5.80;99.90
10431;DHT22;5262;59.958;17.726;2023-03-24T16:00:54;5.90;99.90
10431;DHT22;5262;59.958;17.726;2023-03-24T16:03:22;5.90;99.90
10431;DHT22;5262;59.958;17.726;2023-03-24T16:05:52;5.90;99.90
10431;DHT22;5262;59.958;17.726;2023-03-24T16:08:34;5.80;99.90
10431;DHT22;5262;59.958;17.726;2023-03-24T16:11:05;5.80;99.90
10431;DHT22;5262;59.958;17.726;2023-03-24T16:13:36;5.80;99.90
10431;DHT22;5262;59.958;17.726;2023-03-24T16:18:45;5.70;99.90
10431;DHT22;5262;59.958;17.726;2023-03-24T16:23:43;5.60;99.90
10431;DHT22;5262;59.958;17.726;2023-03-24T16:26:16;5.60;99.90
10431;DHT22;5262;59.958;17.726;2023-03-24T16:28:43;5.50;99.90
10431;DHT22;5262;59.958;17.726;2023-03-24T16:31:20;5.60;99.90
10431;DHT22;5262;59.958;17.726;2023-03-24T16:33:47;5.50;99.90
10431;DHT22;5262;59.958;17.726;2023-03-24T16:36:13;5.50;99.90
10431;DHT22;5262;59.958;17.726;2023-03-24T16:38:40;5.50;99.90
10431;DHT22;5262;59.958;17.726;2023-03-24T16:41:07;5.50;99.90
10431;DHT22;5262;59.958;17.726;2023-03-24T16:43:35;5.50;99.90
10431;DHT22;5262;59.958;17.726;2023-03-24T16:46:02;5.50;99.90
10431;DHT22;5262;59.958;17.726;2023-03-24T16:48:27;5.50;99.90
10431;DHT22;5262;59.958;17.726;2023-03-24T16:50:53;5.50;99.90
10431;DHT22;5262;59.958;17.726;2023-03-24T16:53:20;5.50;99.90
10431;DHT22;5262;59.958;17.726;2023-03-24T16:55:46;5.50;99.90
10431;DHT22;5262;59.958;17.726;2023-03-24T16:58:13;5.50;99.90
10431;DHT22;5262;59.958;17.726;2023-03-24T17:00:40;5.50;99.90
10431;DHT22;5262;59.958;17.726;2023-03-24T17:03:09;5.40;99.90
10431;DHT22;5262;59.958;17.726;2023-03-24T17:05:48;5.40;99.90
10431;DHT22;5262;59.958;17.726;2023-03-24T17:08:16;5.40;99.90
10431;DHT22;5262;59.958;17.726;2023-03-24T17:10:44;5.40;99.90
10431;DHT22;5262;59.958;17.726;2023-03-24T17:13:23;5.40;99.90
10431;DHT22;5262;59.958;17.726;2023-03-24T17:15:50;5.40;99.90
10431;DHT22;5262;59.958;17.726;2023-03-24T17:18:16;5.40;99.90
10431;DHT22;5262;59.958;17.726;2023-03-24T17:20:43;5.30;99.90
10431;DHT22;5262;59.958;17.726;2023-03-24T17:23:10;5.30;99.90
10431;DHT22;5262;59.958;17.726;2023-03-24T17:25:37;5.30;99.90
10431;DHT22;5262;59.958;17.726;2023-03-24T17:28:05;5.30;99.90
10431;DHT22;5262;59.958;17.726;2023-03-24T17:30:31;5.30;99.90
10431;DHT22;5262;59.958;17.726;2023-03-24T17:32:56;5.20;99.90
10431;DHT22;5262;59.958;17.726;2023-03-24T17:35:23;5.20;99.90
10431;DHT22;5262;59.958;17.726;2023-03-24T17:37:49;5.10;99.90
10431;DHT22;5262;59.958;17.726;2023-03-24T17:40:17;5.20;99.90
10431;DHT22;5262;59.958;17.726;2023-03-24T17:42:44;5.10;99.90
10431;DHT22;5262;59.958;17.726;2023-03-24T17:45:12;5.10;99.90
10431;DHT22;5262;59.958;17.726;2023-03-24T17:47:38;5.10;99.90
10431;DHT22;5262;59.958;17.726;2023-03-24T17:50:06;5.10;99.90
10431;DHT22;5262;59.958;17.726;2023-03-24T17:52:44;5.20;99.90
10431;DHT22;5262;59.958;17.726;2023-03-24T17:55:11;5.10;99.90
10431;DHT22;5262;59.958;17.726;2023-03-24T17:57:37;5.00;99.90
10431;DHT22;5262;59.958;17.726;2023-03-24T18:00:03;5.00;99.90
10431;DHT22;5262;59.958;17.726;2023-03-24T18:02:39;5.00;99.90
10431;DHT22;5262;59.958;17.726;2023-03-24T18:05:06;4.90;99.90
10431;DHT22;5262;59.958;17.726;2023-03-24T18:07:32;4.90;99.90
10431;DHT22;5262;59.958;17.726;2023-03-24T18:09:58;4.90;99.90
10431;DHT22;5262;59.958;17.726;2023-03-24T18:12:24;4.90;99.90
10431;DHT22;5262;59.958;17.726;2023-03-24T18:14:50;4.90;99.90
10431;DHT22;5262;59.958;17.726;2023-03-24T18:17:16;4.90;99.90
10431;DHT22;5262;59.958;17.726;2023-03-24T18:19:42;4.80;99.90
10431;DHT22;5262;59.958;17.726;2023-03-24T18:22:08;4.80;99.90
10431;DHT22;5262;59.958;17.726;2023-03-24T18:24:34;4.80;99.90
10431;DHT22;5262;59.958;17.726;2023-03-24T18:27:00;4.70;99.90
10431;DHT22;5262;59.958;17.726;2023-03-24T18:29:27;4.70;99.90
10431;DHT22;5262;59.958;17.726;2023-03-24T18:31:53;4.70;99.90
10431;DHT22;5262;59.958;17.726;2023-03-24T18:34:18;4.70;99.90
10431;DHT22;5262;59.958;17.726;2023-03-24T18:36:46;4.70;99.90
10431;DHT22;5262;59.958;17.726;2023-03-24T18:39:12;4.70;99.90
10431;DHT22;5262;59.958;17.726;2023-03-24T18:41:38;4.70;99.90
10431;DHT22;5262;59.958;17.726;2023-03-24T18:44:08;4.70;99.90
10431;DHT22;5262;59.958;17.726;2023-03-24T18:46:35;4.70;99.90
10431;DHT22;5262;59.958;17.726;2023-03-24T18:49:01;4.70;99.90
10431;DHT22;5262;59.958;17.726;2023-03-24T18:51:28;4.70;99.90
10431;DHT22;5262;59.958;17.726;2023-03-24T18:53:54;4.70;99.90
10431;DHT22;5262;59.958;17.726;2023-03-24T18:56:20;4.70;99.90
10431;DHT22;5262;59.958;17.726;2023-03-24T18:58:47;4.70;99.90
10431;DHT22;5262;59.958;17.726;2023-03-24T19:01:15;4.70;99.90